Главная страница
METAR-TAF:

METAR-TAF

Аэропорты :

Янгстаун / Уоррен, Огайо, США

широта: 41-15-16N, долгота: 080-40-26W, высота над уровнем моря: 364 м

Текущие метеонаблюдения

Эта сводка был подготовлена 18 минут назад, в 10:51 UTC
Ветер 4 Узел от западный
Температура 12°C
Влажность 58%
Давление 1024 hPa
Видимость: 16.1 км
Рассеянная облачность на высоте 8000 фута
Сплошная облачность на высоте 9000 фута

METAR: KYNG 161051Z 27004KT 10SM BKN080 OVC090 12/04 A3025 RMK AO2 SLP241 T01170044 $

Время: 07:09 (11:09 UTC)

Прогноз

Эта сводка был подготовлена 5 часа и 41 минут назад, в 05:28 UTC
Прогноз действительный с 16-го 06 UTC до 17-го 06 UTC
Ветер 4 Узел переменных направлений
Видимость: 10 км
Рассеянная облачность на высоте 15000 фута

TAF: KYNG 160528Z 1606/1706 VRB04KT P6SM BKN150

Метеонаблюдения и прогнозы для более 4000 аэропортов (сводки METAR и TAF).

Имеющиеся станции представлены на карте желтыми и красными точками.

Чтобы увидеть название станции, наведите на нее мышь.

Затем щелкните, чтобы увидеть метеонаблюдения и метеопрогнозы.

Управление картой: чтобы увеличить масштаб, щелкните зеленые кнопки с черным крестиком; чтобы уменьшить масштаб, щелкните зеленую кнопку с тире; для просмотра соседних карт щелкайте зеленые стрелки.


METAR-TAF: